Time;durP1;ratioP1;P1;durP2;ratioP2;P2;SDS_P1;SDS_P2;PMS_P1;PMS_P2;Temp;Humidity;BMP_temperature;BMP_pressure;BME280_temperature;BME280_humidity;BME280_pressure;Samples;Min_cycle;Max_cycle;Signal;HPM_P1;HPM_P2
2021/03/23 00:01:28;;;;;;;13.10;6.57;;;;;;;;;;5018500;28;20398;-83
2021/03/23 00:03:54;;;;;;;14.60;5.95;;;;;;;;;;5000562;28;20382;-83
2021/03/23 00:06:22;;;;;;;12.33;5.90;;;;;;;;;;5018291;28;20447;-82
2021/03/23 00:08:49;;;;;;;12.00;5.93;;;;;;;;;;5018679;28;20452;-83
2021/03/23 00:11:18;;;;;;;14.07;6.38;;;;;;;;;;5017911;28;20371;-83
2021/03/23 00:13:44;;;;;;;11.00;5.97;;;;;;;;;;5018442;28;20445;-82
2021/03/23 00:16:11;;;;;;;12.93;5.90;;;;;;;;;;5018633;28;20413;-83
2021/03/23 00:18:38;;;;;;;10.68;6.25;;;;;;;;;;5018454;28;20370;-82
2021/03/23 00:21:05;;;;;;;11.63;6.27;;;;;;;;;;5018280;28;20439;-84
2021/03/23 00:23:31;;;;;;;14.20;6.13;;;;;;;;;;5018374;28;20385;-83
2021/03/23 00:25:58;;;;;;;13.90;6.20;;;;;;;;;;5017972;28;20864;-83
2021/03/23 00:28:24;;;;;;;11.37;5.97;;;;;;;;;;5017742;28;20366;-84
2021/03/23 00:30:52;;;;;;;10.80;6.20;;;;;;;;;;5017893;28;20365;-81
2021/03/23 00:33:18;;;;;;;13.18;6.75;;;;;;;;;;4996710;28;20385;-81
2021/03/23 00:35:44;;;;;;;15.85;6.70;;;;;;;;;;5016850;28;20786;-83
2021/03/23 00:38:10;;;;;;;11.45;6.97;;;;;;;;;;5017455;28;20885;-83
2021/03/23 00:40:37;;;;;;;12.83;7.30;;;;;;;;;;5017350;28;20429;-82
2021/03/23 00:43:04;;;;;;;12.88;7.32;;;;;;;;;;5017578;28;20753;-84
2021/03/23 00:45:31;;;;;;;15.83;8.17;;;;;;;;;;5017868;28;20412;-82
2021/03/23 00:47:57;;;;;;;11.88;7.55;;;;;;;;;;5017630;28;20377;-81
2021/03/23 00:50:23;;;;;;;16.23;8.55;;;;;;;;;;5017574;28;20468;-82
2021/03/23 00:52:49;;;;;;;14.38;9.88;;;;;;;;;;5017620;28;21351;-83
2021/03/23 00:55:15;;;;;;;16.05;9.60;;;;;;;;;;5017460;28;20488;-80
2021/03/23 00:57:41;;;;;;;17.73;10.43;;;;;;;;;;5017611;28;20365;-81
2021/03/23 01:00:09;;;;;;;17.15;10.50;;;;;;;;;;5017381;28;20777;-82
2021/03/23 01:02:35;;;;;;;14.23;10.63;;;;;;;;;;5016812;28;20751;-84
2021/03/23 01:05:01;;;;;;;15.70;10.97;;;;;;;;;;5017582;28;20370;-82
2021/03/23 01:07:27;;;;;;;17.92;11.80;;;;;;;;;;5016634;28;20382;-83
2021/03/23 01:09:53;;;;;;;18.13;11.52;;;;;;;;;;5016426;28;20797;-82
2021/03/23 01:12:19;;;;;;;21.98;13.25;;;;;;;;;;4999609;28;20391;-81
2021/03/23 01:14:45;;;;;;;18.30;11.93;;;;;;;;;;4999573;28;20951;-83
2021/03/23 01:17:11;;;;;;;16.98;12.10;;;;;;;;;;5017651;28;20466;-82
2021/03/23 01:19:37;;;;;;;19.40;13.18;;;;;;;;;;5017304;28;20379;-83
2021/03/23 01:22:03;;;;;;;18.38;13.23;;;;;;;;;;5017023;28;20426;-81
2021/03/23 01:24:29;;;;;;;19.02;13.23;;;;;;;;;;5017034;28;20723;-81
2021/03/23 01:26:55;;;;;;;17.52;13.95;;;;;;;;;;5017268;28;20426;-81
2021/03/23 01:29:21;;;;;;;18.85;13.80;;;;;;;;;;5017448;28;20385;-81
2021/03/23 01:31:47;;;;;;;20.87;14.80;;;;;;;;;;5017152;28;20396;-83
2021/03/23 01:34:13;;;;;;;18.23;14.45;;;;;;;;;;5017330;28;20441;-84
2021/03/23 01:36:39;;;;;;;19.02;13.75;;;;;;;;;;5017421;28;20421;-86
2021/03/23 01:39:06;;;;;;;21.80;14.90;;;;;;;;;;4998514;28;20456;-83
2021/03/23 01:41:32;;;;;;;20.75;14.20;;;;;;;;;;5016861;28;20837;-81
2021/03/23 01:43:58;;;;;;;17.83;13.38;;;;;;;;;;4999425;28;20931;-82
2021/03/23 01:46:44;;;;;;;18.33;12.60;;;;;;;;;;5016881;28;20470;-83
2021/03/23 01:49:22;;;;;;;17.30;13.18;;;;;;;;;;5016572;28;20426;-82
2021/03/23 01:51:49;;;;;;;18.52;12.93;;;;;;;;;;5017024;28;20808;-81
2021/03/23 01:54:21;;;;;;;16.73;12.10;;;;;;;;;;5016516;28;20416;-82
2021/03/23 01:56:48;;;;;;;15.85;11.90;;;;;;;;;;5017059;28;20419;-82
2021/03/23 01:59:14;;;;;;;18.65;13.13;;;;;;;;;;4994657;28;20382;-82
2021/03/23 02:01:41;;;;;;;15.52;12.30;;;;;;;;;;5016008;28;20450;-83
2021/03/23 02:04:07;;;;;;;16.05;12.52;;;;;;;;;;5016448;28;21684;-85
2021/03/23 02:06:43;;;;;;;15.55;11.75;;;;;;;;;;4998621;28;20384;-82
2021/03/23 02:09:15;;;;;;;16.67;11.00;;;;;;;;;;5016634;28;20856;-84
2021/03/23 02:11:44;;;;;;;15.18;11.25;;;;;;;;;;5016604;28;20377;-83
2021/03/23 02:14:10;;;;;;;16.77;11.15;;;;;;;;;;5016594;28;20406;-83
2021/03/23 02:16:36;;;;;;;15.93;10.70;;;;;;;;;;5017015;28;20847;-83
2021/03/23 02:19:03;;;;;;;12.73;9.75;;;;;;;;;;5017050;28;20433;-80
2021/03/23 02:21:29;;;;;;;13.43;9.73;;;;;;;;;;5019132;28;20389;-82
2021/03/23 02:23:56;;;;;;;14.00;9.48;;;;;;;;;;5019982;28;20506;-82
2021/03/23 02:26:27;;;;;;;14.50;9.98;;;;;;;;;;5019964;28;20753;-83
2021/03/23 02:28:59;;;;;;;14.23;9.60;;;;;;;;;;5020531;28;20945;-82
2021/03/23 02:31:28;;;;;;;13.73;9.52;;;;;;;;;;5020082;28;20371;-82
2021/03/23 02:33:54;;;;;;;10.65;8.30;;;;;;;;;;5019695;28;20371;-81
2021/03/23 02:36:20;;;;;;;11.60;8.57;;;;;;;;;;5019650;28;20382;-82
2021/03/23 02:38:47;;;;;;;12.60;8.50;;;;;;;;;;5020274;28;20446;-82
2021/03/23 02:41:13;;;;;;;10.65;8.82;;;;;;;;;;4998128;28;20827;-83
2021/03/23 02:43:39;;;;;;;11.60;8.30;;;;;;;;;;4998711;28;20427;-82
2021/03/23 02:46:05;;;;;;;11.57;8.40;;;;;;;;;;5018939;28;20742;-83
2021/03/23 02:48:31;;;;;;;10.70;8.48;;;;;;;;;;5019427;28;20414;-83
2021/03/23 02:50:57;;;;;;;11.93;8.50;;;;;;;;;;5019962;28;20387;-82
2021/03/23 02:53:23;;;;;;;10.77;8.43;;;;;;;;;;5019901;28;20892;-81
2021/03/23 02:55:50;;;;;;;10.82;8.98;;;;;;;;;;5001504;28;20415;-84
2021/03/23 02:58:16;;;;;;;10.77;8.68;;;;;;;;;;5019694;28;20379;-82
2021/03/23 03:00:42;;;;;;;12.88;8.88;;;;;;;;;;5019720;28;20450;-82
2021/03/23 03:03:08;;;;;;;11.45;8.77;;;;;;;;;;5019418;28;20379;-82
2021/03/23 03:05:34;;;;;;;10.77;8.88;;;;;;;;;;5019458;28;20379;-83
2021/03/23 03:08:00;;;;;;;13.23;8.82;;;;;;;;;;5019609;28;20477;-84
2021/03/23 03:10:27;;;;;;;10.65;9.25;;;;;;;;;;5019580;28;20373;-81
2021/03/23 03:12:54;;;;;;;11.80;9.60;;;;;;;;;;5019570;28;20872;-81
2021/03/23 03:15:20;;;;;;;10.30;9.20;;;;;;;;;;5019030;28;20403;-82
2021/03/23 03:17:45;;;;;;;10.93;8.82;;;;;;;;;;5018872;28;20430;-82
2021/03/23 03:20:12;;;;;;;11.20;8.50;;;;;;;;;;5019108;28;20370;-81
2021/03/23 03:22:38;;;;;;;8.70;7.70;;;;;;;;;;5019115;28;20374;-82
2021/03/23 03:25:08;;;;;;;10.15;8.07;;;;;;;;;;5019105;28;20375;-84
2021/03/23 03:27:34;;;;;;;10.27;7.20;;;;;;;;;;5018767;28;20377;-82
2021/03/23 03:30:00;;;;;;;8.02;7.07;;;;;;;;;;5019308;28;20415;-81
2021/03/23 03:32:26;;;;;;;7.65;6.90;;;;;;;;;;5017950;28;20394;-84
2021/03/23 03:34:52;;;;;;;7.28;6.55;;;;;;;;;;5018517;28;20414;-81
2021/03/23 03:37:18;;;;;;;7.10;6.40;;;;;;;;;;5018903;28;20469;-83
2021/03/23 03:39:44;;;;;;;7.27;6.10;;;;;;;;;;5018945;28;20387;-81
2021/03/23 03:42:10;;;;;;;6.55;5.88;;;;;;;;;;5019200;28;20406;-82
2021/03/23 03:44:36;;;;;;;6.70;6.10;;;;;;;;;;5001239;28;20533;-83
2021/03/23 03:47:02;;;;;;;6.18;5.57;;;;;;;;;;5018967;28;20854;-84
2021/03/23 03:49:28;;;;;;;6.82;5.60;;;;;;;;;;5018997;28;20381;-84
2021/03/23 03:51:54;;;;;;;8.03;5.80;;;;;;;;;;5000286;28;20391;-84
2021/03/23 03:54:20;;;;;;;6.00;5.30;;;;;;;;;;5018702;28;20399;-81
2021/03/23 03:56:46;;;;;;;6.03;5.35;;;;;;;;;;5018579;28;20390;-81
2021/03/23 03:59:12;;;;;;;6.57;5.28;;;;;;;;;;5018575;28;20367;-83
2021/03/23 04:01:38;;;;;;;7.00;5.88;;;;;;;;;;5018430;28;20367;-82
2021/03/23 04:04:04;;;;;;;5.80;5.20;;;;;;;;;;5018679;28;20378;-83
2021/03/23 04:06:30;;;;;;;7.30;5.20;;;;;;;;;;5018164;28;20975;-82
2021/03/23 04:08:57;;;;;;;5.93;5.17;;;;;;;;;;5000768;28;20367;-81
2021/03/23 04:11:23;;;;;;;6.43;4.97;;;;;;;;;;5018335;28;20395;-82
2021/03/23 04:13:49;;;;;;;6.20;4.80;;;;;;;;;;5018178;28;20884;-82
2021/03/23 04:16:15;;;;;;;5.47;4.90;;;;;;;;;;5000395;28;20383;-82
2021/03/23 04:18:41;;;;;;;6.20;5.25;;;;;;;;;;5018362;28;20418;-82
2021/03/23 04:21:07;;;;;;;5.88;4.90;;;;;;;;;;5017948;28;20371;-81
2021/03/23 04:23:33;;;;;;;5.40;4.90;;;;;;;;;;5017525;28;20438;-82
2021/03/23 04:26:00;;;;;;;5.40;4.90;;;;;;;;;;5018143;28;20778;-82
2021/03/23 04:28:26;;;;;;;6.43;5.38;;;;;;;;;;5017868;28;20872;-82
2021/03/23 04:30:53;;;;;;;5.40;4.90;;;;;;;;;;5017692;28;20384;-82
2021/03/23 04:33:20;;;;;;;6.53;5.80;;;;;;;;;;5018021;28;20381;-81
2021/03/23 04:35:57;;;;;;;8.60;6.50;;;;;;;;;;4999255;28;20403;-82
2021/03/23 04:38:33;;;;;;;8.93;7.57;;;;;;;;;;5017867;28;20453;-82
2021/03/23 04:41:01;;;;;;;9.23;8.07;;;;;;;;;;5018290;28;20384;-82
2021/03/23 04:43:31;;;;;;;9.18;8.20;;;;;;;;;;4998217;28;20438;-84
2021/03/23 04:45:57;;;;;;;9.60;8.18;;;;;;;;;;5017370;28;20375;-83
2021/03/23 04:48:24;;;;;;;11.55;8.77;;;;;;;;;;5017762;28;20478;-82
2021/03/23 04:50:50;;;;;;;11.25;9.73;;;;;;;;;;5017862;28;20426;-82
2021/03/23 04:53:27;;;;;;;11.45;9.68;;;;;;;;;;5017776;28;20375;-82
2021/03/23 04:55:53;;;;;;;12.47;9.80;;;;;;;;;;5017320;28;20956;-84
2021/03/23 04:58:19;;;;;;;12.75;10.57;;;;;;;;;;5017457;28;20375;-83
2021/03/23 05:00:46;;;;;;;13.95;10.25;;;;;;;;;;5017272;28;20450;-84
2021/03/23 05:03:22;;;;;;;13.68;9.70;;;;;;;;;;5017618;28;20410;-82
2021/03/23 05:05:52;;;;;;;14.18;10.93;;;;;;;;;;5017466;28;20841;-81
2021/03/23 05:08:18;;;;;;;13.82;11.23;;;;;;;;;;4996723;28;20389;-82
2021/03/23 05:10:44;;;;;;;15.50;11.33;;;;;;;;;;5016809;28;20499;-85
2021/03/23 05:13:10;;;;;;;12.27;10.57;;;;;;;;;;5017306;28;20379;-84
2021/03/23 05:15:36;;;;;;;13.45;10.93;;;;;;;;;;5017179;28;20394;-83
2021/03/23 05:18:01;;;;;;;15.43;10.98;;;;;;;;;;5017505;28;20383;-81
2021/03/23 05:20:27;;;;;;;13.25;10.52;;;;;;;;;;5017514;28;20369;-81
2021/03/23 05:22:53;;;;;;;14.23;11.07;;;;;;;;;;5017505;28;20377;-82
2021/03/23 05:25:19;;;;;;;12.85;10.80;;;;;;;;;;5017181;28;20863;-81
2021/03/23 05:27:45;;;;;;;13.03;10.57;;;;;;;;;;5017673;28;21039;-83
2021/03/23 05:30:12;;;;;;;12.25;9.65;;;;;;;;;;5017473;28;20377;-81
2021/03/23 05:32:38;;;;;;;12.00;9.15;;;;;;;;;;4999528;28;20379;-83
2021/03/23 05:35:05;;;;;;;12.57;9.75;;;;;;;;;;5017264;28;20896;-84
2021/03/23 05:37:31;;;;;;;11.40;8.93;;;;;;;;;;5016212;28;21019;-83
2021/03/23 05:39:57;;;;;;;12.20;8.93;;;;;;;;;;5016843;28;20374;-84
2021/03/23 05:42:23;;;;;;;11.77;8.88;;;;;;;;;;4996674;28;21154;-84
2021/03/23 05:45:00;;;;;;;10.93;8.45;;;;;;;;;;4995922;28;20391;-82
2021/03/23 05:47:30;;;;;;;11.88;8.43;;;;;;;;;;5017338;28;20423;-83
2021/03/23 05:50:01;;;;;;;9.02;7.93;;;;;;;;;;4998096;28;20367;-85
2021/03/23 05:52:43;;;;;;;10.00;7.30;;;;;;;;;;5017712;28;20395;-86
2021/03/23 05:55:15;;;;;;;8.90;7.45;;;;;;;;;;5017783;28;20405;-83
2021/03/23 05:57:45;;;;;;;10.63;7.13;;;;;;;;;;5001845;28;20398;-86
2021/03/23 06:00:12;;;;;;;9.57;6.67;;;;;;;;;;5020418;28;20451;-81
2021/03/23 06:02:41;;;;;;;9.13;7.00;;;;;;;;;;5000506;28;20411;-83
2021/03/23 06:05:28;;;;;;;7.93;6.78;;;;;;;;;;5000040;28;20847;-83
2021/03/23 06:07:55;;;;;;;7.82;6.85;;;;;;;;;;5020976;28;20393;-82
2021/03/23 06:10:22;;;;;;;8.65;6.50;;;;;;;;;;5019211;28;20393;-80
2021/03/23 06:13:02;;;;;;;9.50;6.72;;;;;;;;;;4999637;28;20820;-88
2021/03/23 06:15:45;;;;;;;9.15;6.30;;;;;;;;;;4997875;28;20479;-89
2021/03/23 06:18:14;;;;;;;8.13;6.30;;;;;;;;;;5002065;28;20476;-88
2021/03/23 06:20:59;;;;;;;8.77;6.38;;;;;;;;;;5021620;28;20394;-86
2021/03/23 06:23:25;;;;;;;8.87;6.87;;;;;;;;;;5024189;28;20369;-82
2021/03/23 06:26:09;;;;;;;9.20;6.97;;;;;;;;;;5027367;28;20379;-83
2021/03/23 06:28:53;;;;;;;8.23;6.67;;;;;;;;;;5007167;28;20583;-84
2021/03/23 06:31:18;;;;;;;8.70;6.75;;;;;;;;;;5024630;28;20371;-86
2021/03/23 06:33:44;;;;;;;7.20;6.43;;;;;;;;;;5024638;28;20453;-83
2021/03/23 06:36:22;;;;;;;9.98;7.10;;;;;;;;;;5023579;28;20407;-84
2021/03/23 06:38:48;;;;;;;8.07;7.28;;;;;;;;;;5020650;28;20406;-89
2021/03/23 06:41:22;;;;;;;8.95;6.80;;;;;;;;;;5020619;28;20461;-83
2021/03/23 06:43:56;;;;;;;8.93;7.38;;;;;;;;;;5020987;28;20378;-85
2021/03/23 06:46:32;;;;;;;9.60;7.23;;;;;;;;;;5027318;28;20344;-87
2021/03/23 06:49:01;;;;;;;9.43;7.07;;;;;;;;;;5037174;28;20379;-84
2021/03/23 06:51:27;;;;;;;9.77;7.90;;;;;;;;;;5020593;28;20389;-86
2021/03/23 06:53:53;;;;;;;10.20;8.07;;;;;;;;;;5001677;28;20438;-85
2021/03/23 06:56:19;;;;;;;8.37;7.47;;;;;;;;;;5020330;28;20414;-86
2021/03/23 06:58:45;;;;;;;8.55;7.65;;;;;;;;;;5020026;28;20375;-85
2021/03/23 07:01:15;;;;;;;9.02;8.05;;;;;;;;;;5020143;28;20367;-87
2021/03/23 07:03:42;;;;;;;9.57;7.88;;;;;;;;;;5019926;28;20438;-87
2021/03/23 07:06:19;;;;;;;9.07;7.40;;;;;;;;;;4997835;28;20397;-89
2021/03/23 07:09:03;;;;;;;8.43;7.60;;;;;;;;;;4997974;28;20408;-87
2021/03/23 07:11:48;;;;;;;8.35;7.45;;;;;;;;;;5001803;28;20471;-84
2021/03/23 07:14:28;;;;;;;9.30;7.60;;;;;;;;;;5020313;28;20731;-84
2021/03/23 07:17:01;;;;;;;8.20;7.40;;;;;;;;;;5020057;28;20374;-85
2021/03/23 07:19:28;;;;;;;9.18;7.35;;;;;;;;;;5001469;28;20390;-88
2021/03/23 07:22:05;;;;;;;8.18;7.38;;;;;;;;;;5020079;28;20876;-87
2021/03/23 07:24:33;;;;;;;7.82;7.00;;;;;;;;;;5001181;28;20414;-88
2021/03/23 07:27:06;;;;;;;8.60;7.75;;;;;;;;;;5019770;28;20386;-84
2021/03/23 07:29:32;;;;;;;8.70;7.10;;;;;;;;;;5020132;28;20379;-83
2021/03/23 07:32:01;;;;;;;7.60;6.80;;;;;;;;;;5020001;28;20371;-87
2021/03/23 07:34:33;;;;;;;8.15;6.80;;;;;;;;;;5019884;28;20914;-83
2021/03/23 07:37:02;;;;;;;7.50;6.57;;;;;;;;;;5020224;28;20557;-83
2021/03/23 07:39:31;;;;;;;7.78;6.80;;;;;;;;;;5019399;28;20411;-88
2021/03/23 07:41:58;;;;;;;6.97;6.28;;;;;;;;;;4997949;28;20369;-89
2021/03/23 07:44:34;;;;;;;7.00;6.30;;;;;;;;;;5000840;28;20378;-85
2021/03/23 07:47:03;;;;;;;6.95;6.30;;;;;;;;;;5001525;28;20398;-85
2021/03/23 07:49:34;;;;;;;6.30;5.50;;;;;;;;;;4999039;28;20377;-85
2021/03/23 07:52:03;;;;;;;6.40;5.80;;;;;;;;;;5020108;28;20427;-87
2021/03/23 07:54:31;;;;;;;6.20;5.50;;;;;;;;;;5019340;28;20481;-82
2021/03/23 07:56:57;;;;;;;6.18;5.57;;;;;;;;;;5019536;28;20373;-84
2021/03/23 07:59:29;;;;;;;6.30;5.70;;;;;;;;;;5019663;28;20882;-88
2021/03/23 08:02:24;;;;;;;6.30;5.70;;;;;;;;;;5019700;28;20368;-86
2021/03/23 08:05:00;;;;;;;7.35;5.60;;;;;;;;;;5019541;28;20864;-86
2021/03/23 08:07:44;;;;;;;6.00;5.50;;;;;;;;;;4997611;28;20381;-88
2021/03/23 08:10:21;;;;;;;5.70;5.20;;;;;;;;;;5019046;28;20393;-89
2021/03/23 08:13:17;;;;;;;5.65;5.05;;;;;;;;;;5019168;28;20390;-85
2021/03/23 08:16:18;;;;;;;6.05;5.07;;;;;;;;;;5002072;28;20500;-85
2021/03/23 08:19:07;;;;;;;5.13;4.60;;;;;;;;;;4939438;29;20395;-86
2021/03/23 08:21:39;;;;;;;5.07;4.57;;;;;;;;;;4997834;28;20383;-86
2021/03/23 08:24:15;;;;;;;5.10;4.60;;;;;;;;;;5017649;28;20430;-85
2021/03/23 08:26:53;;;;;;;5.28;4.78;;;;;;;;;;5018033;28;20468;-86
2021/03/23 08:29:19;;;;;;;4.82;4.30;;;;;;;;;;5013150;28;20379;-86
2021/03/23 08:31:54;;;;;;;4.60;4.10;;;;;;;;;;5017490;28;20438;-86
2021/03/23 08:34:26;;;;;;;4.38;3.97;;;;;;;;;;5016967;28;20407;-87
2021/03/23 08:37:01;;;;;;;4.32;3.92;;;;;;;;;;4997136;28;20800;-86
2021/03/23 08:39:36;;;;;;;4.82;3.88;;;;;;;;;;5012880;28;20914;-85
2021/03/23 08:42:32;;;;;;;5.57;3.78;;;;;;;;;;5016947;28;20438;-86
2021/03/23 08:44:59;;;;;;;4.65;3.88;;;;;;;;;;5004106;28;20426;-87
2021/03/23 08:47:25;;;;;;;3.97;3.60;;;;;;;;;;5016522;28;20385;-87
2021/03/23 08:49:53;;;;;;;4.13;3.53;;;;;;;;;;5017606;28;20408;-85
2021/03/23 08:52:33;;;;;;;5.30;3.40;;;;;;;;;;4998414;28;20746;-86
2021/03/23 08:55:00;;;;;;;5.75;3.60;;;;;;;;;;5017229;28;20474;-86
2021/03/23 08:57:46;;;;;;;3.90;2.70;;;;;;;;;;5017707;28;20381;-85
2021/03/23 09:00:31;;;;;;;3.60;3.08;;;;;;;;;;5000138;28;20403;-86
2021/03/23 09:02:57;;;;;;;3.28;2.65;;;;;;;;;;5016989;28;20381;-84
2021/03/23 09:05:28;;;;;;;4.30;3.10;;;;;;;;;;5017499;28;20396;-87
2021/03/23 09:08:14;;;;;;;4.93;3.00;;;;;;;;;;5017110;28;20397;-86
2021/03/23 09:11:01;;;;;;;3.50;2.90;;;;;;;;;;4997755;28;20387;-86
2021/03/23 09:13:36;;;;;;;3.40;2.63;;;;;;;;;;5016567;28;20389;-85
2021/03/23 09:16:11;;;;;;;3.70;2.80;;;;;;;;;;5017614;28;20909;-86
2021/03/23 09:18:57;;;;;;;4.32;2.85;;;;;;;;;;5009814;28;20446;-87
2021/03/23 09:21:24;;;;;;;5.35;2.45;;;;;;;;;;5009256;28;20457;-85
2021/03/23 09:23:52;;;;;;;3.65;2.65;;;;;;;;;;4991695;28;20908;-86
2021/03/23 09:26:37;;;;;;;3.67;2.50;;;;;;;;;;4992427;28;20483;-84
2021/03/23 09:29:22;;;;;;;4.33;2.47;;;;;;;;;;5009961;28;20387;-86
2021/03/23 09:31:48;;;;;;;3.78;2.38;;;;;;;;;;4992497;28;20386;-86
2021/03/23 09:34:37;;;;;;;5.15;2.42;;;;;;;;;;5010260;28;20394;-87
2021/03/23 09:37:23;;;;;;;4.70;2.70;;;;;;;;;;4973315;28;20431;-84
2021/03/23 09:39:49;;;;;;;3.70;2.40;;;;;;;;;;5009778;28;20423;-85
2021/03/23 09:42:23;;;;;;;3.63;2.50;;;;;;;;;;5025322;28;20776;-88
2021/03/23 09:44:57;;;;;;;4.72;2.78;;;;;;;;;;5008817;28;20390;-88
2021/03/23 09:47:38;;;;;;;4.20;2.50;;;;;;;;;;4992049;28;20379;-87
2021/03/23 09:50:04;;;;;;;4.00;2.53;;;;;;;;;;4995976;28;20751;-89
2021/03/23 09:52:32;;;;;;;5.93;2.78;;;;;;;;;;5009271;28;20383;-85
2021/03/23 09:55:00;;;;;;;5.50;2.50;;;;;;;;;;5009950;28;20414;-85
2021/03/23 09:57:30;;;;;;;6.03;2.58;;;;;;;;;;4992178;28;20761;-85
2021/03/23 09:59:57;;;;;;;5.18;2.40;;;;;;;;;;5002225;28;20383;-85
2021/03/23 10:02:31;;;;;;;3.88;2.50;;;;;;;;;;4991779;28;20877;-88
2021/03/23 10:05:14;;;;;;;4.72;2.60;;;;;;;;;;5009742;28;20390;-88
2021/03/23 10:07:41;;;;;;;3.47;2.53;;;;;;;;;;4992442;28;20399;-85
2021/03/23 10:10:13;;;;;;;4.75;2.67;;;;;;;;;;5010129;28;20395;-86
2021/03/23 10:12:40;;;;;;;3.72;2.47;;;;;;;;;;5009916;28;20887;-87
2021/03/23 10:15:26;;;;;;;4.03;2.55;;;;;;;;;;5010107;28;20889;-88
2021/03/23 10:17:52;;;;;;;3.75;2.35;;;;;;;;;;4993309;28;20383;-86
2021/03/23 10:20:20;;;;;;;5.20;2.58;;;;;;;;;;5010127;28;20375;-87
2021/03/23 10:22:52;;;;;;;4.18;2.35;;;;;;;;;;4992580;28;20869;-87
2021/03/23 10:25:20;;;;;;;4.90;2.80;;;;;;;;;;5009960;28;20375;-88
2021/03/23 10:27:46;;;;;;;3.00;2.40;;;;;;;;;;5010190;28;20420;-86
2021/03/23 10:30:17;;;;;;;5.53;2.50;;;;;;;;;;5010051;28;20454;-88
2021/03/23 10:32:45;;;;;;;4.07;2.30;;;;;;;;;;5010060;28;20744;-87
2021/03/23 10:35:14;;;;;;;6.50;3.15;;;;;;;;;;4992300;28;20409;-88
2021/03/23 10:37:40;;;;;;;4.55;2.97;;;;;;;;;;5009675;28;20371;-86
2021/03/23 10:40:26;;;;;;;4.90;2.90;;;;;;;;;;5009835;28;20399;-87
2021/03/23 10:42:53;;;;;;;4.80;3.38;;;;;;;;;;5011540;28;20466;-86
2021/03/23 10:45:31;;;;;;;6.40;4.13;;;;;;;;;;5013120;28;20443;-88
2021/03/23 10:48:27;;;;;;;4.68;3.70;;;;;;;;;;5013212;28;20753;-86
2021/03/23 10:51:26;;;;;;;4.95;4.05;;;;;;;;;;4975436;28;20382;-87
2021/03/23 10:54:03;;;;;;;4.60;3.90;;;;;;;;;;4943227;28;20394;-88
2021/03/23 10:56:32;;;;;;;4.88;4.32;;;;;;;;;;4995217;28;20399;-89
2021/03/23 10:59:04;;;;;;;5.80;4.45;;;;;;;;;;5013161;28;20869;-87
2021/03/23 11:01:30;;;;;;;5.60;4.20;;;;;;;;;;5017645;28;20381;-87
2021/03/23 11:04:10;;;;;;;6.85;4.43;;;;;;;;;;4999740;28;20387;-90
2021/03/23 11:06:37;;;;;;;5.88;3.80;;;;;;;;;;4998499;28;20395;-85
2021/03/23 11:09:07;;;;;;;5.63;3.90;;;;;;;;;;5025480;28;20376;-84
2021/03/23 11:11:33;;;;;;;6.00;3.33;;;;;;;;;;5003841;28;20389;-83
2021/03/23 11:13:59;;;;;;;4.93;3.20;;;;;;;;;;5023922;28;20375;-91
2021/03/23 11:16:28;;;;;;;6.20;2.90;;;;;;;;;;5003114;28;20414;-89
2021/03/23 11:18:56;;;;;;;5.57;2.90;;;;;;;;;;5023853;28;20473;-88
2021/03/23 11:21:22;;;;;;;5.38;2.95;;;;;;;;;;5005120;28;20795;-84
2021/03/23 11:23:54;;;;;;;6.07;2.88;;;;;;;;;;5020652;28;20412;-87
2021/03/23 11:26:22;;;;;;;3.60;2.15;;;;;;;;;;5019712;28;20434;-91
2021/03/23 11:28:54;;;;;;;3.33;2.20;;;;;;;;;;5016628;28;20412;-89
2021/03/23 11:31:23;;;;;;;5.82;2.45;;;;;;;;;;5000094;28;20985;-87
2021/03/23 11:33:52;;;;;;;4.07;2.30;;;;;;;;;;4998818;28;20397;-84
2021/03/23 11:36:32;;;;;;;4.65;3.10;;;;;;;;;;4997702;28;20420;-91
2021/03/23 11:38:59;;;;;;;5.55;3.60;;;;;;;;;;5000015;28;20379;-89
2021/03/23 11:41:33;;;;;;;6.55;4.38;;;;;;;;;;5011181;28;20386;-87
2021/03/23 11:44:10;;;;;;;7.40;4.47;;;;;;;;;;4998131;28;21004;-89
2021/03/23 11:47:05;;;;;;;;;;;;;;;;;;;;;
2021/03/23 11:49:33;;;;;;;9.43;4.70;;;;;;;;;;5017960;28;20397;-89
2021/03/23 11:52:03;;;;;;;7.55;4.65;;;;;;;;;;5018205;28;20379;-86
2021/03/23 11:54:38;;;;;;;9.25;5.07;;;;;;;;;;4996200;28;20421;-87
2021/03/23 11:57:10;;;;;;;6.70;4.80;;;;;;;;;;4997731;28;20424;-86
2021/03/23 11:59:38;;;;;;;8.60;5.10;;;;;;;;;;5000381;28;20390;-86
2021/03/23 12:02:07;;;;;;;6.68;4.65;;;;;;;;;;4999133;28;20393;-94
2021/03/23 12:04:40;;;;;;;5.87;4.70;;;;;;;;;;5006912;28;20373;-85
2021/03/23 12:07:34;;;;;;;9.43;5.50;;;;;;;;;;5018305;28;20396;-85
2021/03/23 12:10:08;;;;;;;7.50;5.32;;;;;;;;;;4999184;28;20374;-87
2021/03/23 12:12:37;;;;;;;6.40;4.88;;;;;;;;;;4997099;28;20393;-85
2021/03/23 12:15:09;;;;;;;9.90;5.30;;;;;;;;;;4994392;28;20448;-87
2021/03/23 12:17:37;;;;;;;9.88;5.75;;;;;;;;;;5017138;28;20425;-87
2021/03/23 12:20:10;;;;;;;8.32;5.80;;;;;;;;;;5017828;28;20377;-84
2021/03/23 12:22:36;;;;;;;9.25;5.55;;;;;;;;;;5014182;28;20539;-86
2021/03/23 12:25:04;;;;;;;10.00;6.47;;;;;;;;;;5008084;28;20786;-86
2021/03/23 12:27:30;;;;;;;11.13;6.45;;;;;;;;;;5017548;28;20444;-85
2021/03/23 12:29:58;;;;;;;12.73;6.40;;;;;;;;;;5014113;28;20412;-85
2021/03/23 12:32:25;;;;;;;8.57;6.00;;;;;;;;;;5017343;28;20379;-87
2021/03/23 12:34:52;;;;;;;9.07;6.50;;;;;;;;;;5016646;28;20411;-88
2021/03/23 12:37:19;;;;;;;10.73;6.00;;;;;;;;;;4998187;28;20452;-86
2021/03/23 12:39:47;;;;;;;9.82;6.30;;;;;;;;;;5001283;28;20437;-86
2021/03/23 12:42:16;;;;;;;8.23;6.43;;;;;;;;;;4998167;28;20390;-84
2021/03/23 12:44:42;;;;;;;9.33;6.30;;;;;;;;;;5017258;28;20432;-87
2021/03/23 12:47:09;;;;;;;8.48;5.93;;;;;;;;;;5015932;28;20407;-84
2021/03/23 12:49:35;;;;;;;9.90;5.90;;;;;;;;;;4999239;28;20400;-87
2021/03/23 12:52:03;;;;;;;8.63;6.25;;;;;;;;;;5015648;28;20800;-86
2021/03/23 12:54:34;;;;;;;12.63;6.13;;;;;;;;;;5016026;28;20416;-88
2021/03/23 12:57:00;;;;;;;9.23;6.00;;;;;;;;;;5015833;28;20390;-88
2021/03/23 12:59:27;;;;;;;6.85;5.78;;;;;;;;;;4996580;28;21166;-88
2021/03/23 13:01:53;;;;;;;8.82;5.50;;;;;;;;;;5016057;28;20419;-89
2021/03/23 13:04:23;;;;;;;9.43;5.50;;;;;;;;;;5016310;28;22467;-89
2021/03/23 13:06:51;;;;;;;8.13;6.20;;;;;;;;;;5017470;28;20778;-86
2021/03/23 13:09:18;;;;;;;8.40;5.93;;;;;;;;;;5016166;28;20446;-85
2021/03/23 13:11:45;;;;;;;9.85;6.28;;;;;;;;;;5016122;28;21008;-86
2021/03/23 13:14:22;;;;;;;11.90;6.10;;;;;;;;;;5017186;28;20370;-86
2021/03/23 13:16:48;;;;;;;9.57;6.88;;;;;;;;;;5016713;28;20740;-85
2021/03/23 13:19:21;;;;;;;11.25;6.47;;;;;;;;;;5015893;28;20900;-87
2021/03/23 13:21:48;;;;;;;11.47;6.97;;;;;;;;;;5017214;28;20378;-89
2021/03/23 13:24:27;;;;;;;10.57;7.32;;;;;;;;;;5002443;28;20379;-85
2021/03/23 13:26:53;;;;;;;10.75;7.68;;;;;;;;;;5015228;28;20789;-85
2021/03/23 13:29:19;;;;;;;10.60;8.00;;;;;;;;;;4996475;28;20893;-86
2021/03/23 13:31:47;;;;;;;11.98;7.80;;;;;;;;;;4997639;28;20382;-89
2021/03/23 13:34:17;;;;;;;11.48;7.63;;;;;;;;;;4998900;28;20429;-85
2021/03/23 13:36:51;;;;;;;11.25;8.25;;;;;;;;;;5015825;28;20381;-87
2021/03/23 13:39:17;;;;;;;13.50;8.90;;;;;;;;;;5016415;28;20415;-85
2021/03/23 13:41:43;;;;;;;11.87;8.67;;;;;;;;;;5016304;28;20422;-87
2021/03/23 13:44:29;;;;;;;12.82;8.00;;;;;;;;;;5016160;28;20406;-86
2021/03/23 13:46:55;;;;;;;12.50;8.50;;;;;;;;;;4970017;28;20511;-85
2021/03/23 13:49:21;;;;;;;12.73;8.63;;;;;;;;;;5016460;28;20911;-85
2021/03/23 13:51:50;;;;;;;11.27;8.32;;;;;;;;;;5016984;28;20932;-86
2021/03/23 13:54:15;;;;;;;13.30;8.75;;;;;;;;;;5016679;28;20370;-87
2021/03/23 13:56:41;;;;;;;11.23;8.43;;;;;;;;;;5017503;28;20392;-89
2021/03/23 13:59:08;;;;;;;11.45;8.77;;;;;;;;;;5017572;28;20512;-86
2021/03/23 14:01:34;;;;;;;11.38;7.95;;;;;;;;;;5016710;28;20375;-86
2021/03/23 14:04:00;;;;;;;10.73;8.00;;;;;;;;;;4998617;28;20391;-85
2021/03/23 14:06:27;;;;;;;12.93;8.55;;;;;;;;;;4999084;28;20387;-88
2021/03/23 14:08:53;;;;;;;11.00;8.40;;;;;;;;;;5017151;28;21007;-86
2021/03/23 14:11:22;;;;;;;12.07;9.13;;;;;;;;;;4998811;28;20461;-85
2021/03/23 14:13:48;;;;;;;12.75;8.88;;;;;;;;;;5017034;28;20881;-86
2021/03/23 14:16:14;;;;;;;12.45;9.18;;;;;;;;;;5018191;28;20405;-87
2021/03/23 14:18:41;;;;;;;13.80;9.33;;;;;;;;;;5018304;28;20399;-85
2021/03/23 14:21:08;;;;;;;13.63;9.55;;;;;;;;;;5020381;28;20873;-86
2021/03/23 14:23:38;;;;;;;14.98;9.77;;;;;;;;;;5020661;28;20376;-86
2021/03/23 14:26:04;;;;;;;14.97;10.37;;;;;;;;;;5001596;28;20387;-84
2021/03/23 14:28:40;;;;;;;15.07;10.98;;;;;;;;;;5019046;28;20382;-85
2021/03/23 14:31:08;;;;;;;14.95;11.38;;;;;;;;;;5002530;28;20479;-84
2021/03/23 14:33:34;;;;;;;16.83;10.60;;;;;;;;;;5020506;28;20374;-87
2021/03/23 14:36:00;;;;;;;14.48;10.30;;;;;;;;;;5020474;28;20395;-84
2021/03/23 14:38:33;;;;;;;17.07;10.40;;;;;;;;;;5020332;28;20376;-85
2021/03/23 14:41:00;;;;;;;15.07;10.70;;;;;;;;;;5002480;28;20403;-84
2021/03/23 14:43:27;;;;;;;15.43;10.82;;;;;;;;;;5020172;28;20378;-84
2021/03/23 14:45:54;;;;;;;16.25;10.63;;;;;;;;;;4998486;28;20472;-84
2021/03/23 14:48:24;;;;;;;14.82;10.68;;;;;;;;;;5019220;28;20380;-85
2021/03/23 14:50:50;;;;;;;14.80;10.90;;;;;;;;;;5020462;28;20369;-84
2021/03/23 14:53:19;;;;;;;17.60;11.98;;;;;;;;;;5020459;28;20377;-85